createdAt,value
2019-05-06T00:02:24.609Z,72.40
2019-05-06T00:04:55.090Z,71.90
2019-05-06T00:07:28.066Z,72.00
2019-05-06T00:10:00.357Z,71.60
2019-05-06T00:12:33.141Z,72.10
2019-05-06T00:15:05.570Z,71.10
2019-05-06T00:17:39.633Z,70.60
2019-05-06T00:20:14.735Z,70.80
2019-05-06T00:22:47.863Z,70.40
2019-05-06T00:25:26.368Z,69.70
2019-05-06T00:28:15.156Z,69.80
2019-05-06T00:30:49.771Z,68.40
2019-05-06T00:33:21.560Z,68.80
2019-05-06T00:35:53.838Z,67.80
2019-05-06T00:38:26.114Z,69.10
2019-05-06T00:41:01.405Z,69.40
2019-05-06T00:43:35.132Z,69.50
2019-05-06T00:46:05.573Z,69.70
2019-05-06T00:48:39.730Z,69.30
2019-05-06T00:51:13.544Z,68.10
2019-05-06T00:53:46.355Z,68.10
2019-05-06T00:56:17.857Z,68.50
2019-05-06T00:58:49.195Z,69.40
2019-05-06T01:01:27.086Z,70.10
2019-05-06T01:03:54.285Z,70.20
2019-05-06T01:06:25.723Z,70.20
2019-05-06T01:08:56.738Z,70.20
2019-05-06T01:11:26.716Z,70.90
2019-05-06T01:13:59.377Z,70.90
2019-05-06T01:16:30.604Z,70.70
2019-05-06T01:19:00.573Z,71.30
2019-05-06T01:21:34.053Z,71.60
2019-05-06T01:24:06.445Z,71.80
2019-05-06T01:26:36.280Z,72.00
2019-05-06T01:29:08.610Z,71.90
2019-05-06T01:31:42.656Z,71.70
2019-05-06T01:34:11.344Z,72.10
2019-05-06T01:36:43.738Z,71.90
2019-05-06T01:39:21.815Z,72.20
2019-05-06T01:42:09.362Z,72.00
2019-05-06T01:44:40.517Z,71.90
2019-05-06T01:47:11.436Z,72.10
2019-05-06T01:49:44.204Z,72.60
2019-05-06T01:52:14.709Z,72.50
2019-05-06T01:54:44.585Z,72.50
2019-05-06T01:57:17.954Z,72.90
2019-05-06T01:59:53.932Z,71.90
2019-05-06T02:02:25.818Z,72.50
2019-05-06T02:04:58.184Z,72.60
2019-05-06T02:07:32.035Z,72.80
2019-05-06T02:10:03.866Z,73.20
2019-05-06T02:12:35.660Z,73.50
2019-05-06T02:15:10.088Z,73.90
2019-05-06T02:17:40.287Z,74.00
2019-05-06T02:20:13.728Z,74.30
2019-05-06T02:22:49.866Z,74.70
2019-05-06T02:25:24.776Z,75.00
2019-05-06T02:27:55.463Z,74.80
2019-05-06T02:30:32.004Z,75.10
2019-05-06T02:33:10.133Z,75.20
2019-05-06T02:35:45.412Z,75.50
2019-05-06T02:38:32.654Z,76.00
2019-05-06T02:41:03.178Z,75.70
2019-05-06T02:43:34.649Z,75.90
2019-05-06T02:46:04.863Z,76.00
2019-05-06T02:48:43.407Z,76.30
2019-05-06T02:51:16.065Z,76.40
2019-05-06T02:53:48.435Z,75.90
2019-05-06T02:56:19.661Z,75.90
2019-05-06T02:58:53.526Z,76.30
2019-05-06T03:01:24.975Z,76.90
2019-05-06T03:03:54.930Z,76.40
2019-05-06T03:06:26.106Z,76.60
2019-05-06T03:08:59.432Z,76.40
2019-05-06T03:11:32.972Z,76.40
2019-05-06T03:14:03.284Z,76.80
2019-05-06T03:19:24.051Z,76.30
2019-05-06T03:21:55.777Z,76.00
2019-05-06T03:24:27.350Z,76.10
2019-05-06T03:26:57.864Z,76.20
2019-05-06T03:29:28.826Z,76.20
2019-05-06T03:31:59.873Z,76.00
2019-05-06T03:34:58.712Z,75.60
2019-05-06T03:37:16.237Z,75.90
2019-05-06T03:39:44.550Z,75.90
2019-05-06T03:42:16.578Z,75.60
2019-05-06T03:44:53.200Z,76.20
2019-05-06T03:47:34.472Z,76.10
2019-05-06T03:50:04.925Z,76.60
2019-05-06T03:52:34.548Z,76.50
2019-05-06T03:55:06.220Z,76.00
2019-05-06T03:57:42.755Z,75.30
2019-05-06T04:00:16.165Z,75.90
2019-05-06T04:02:47.630Z,75.70
2019-05-06T04:05:20.023Z,75.60
2019-05-06T04:07:52.888Z,75.50
2019-05-06T04:10:23.028Z,74.90
2019-05-06T04:12:54.128Z,75.60
2019-05-06T04:15:26.715Z,75.20
2019-05-06T04:18:03.913Z,75.40
2019-05-06T04:20:53.129Z,75.60
2019-05-06T04:23:43.561Z,75.20
2019-05-06T04:26:18.040Z,75.50
2019-05-06T04:28:49.029Z,74.80
2019-05-06T04:31:22.854Z,74.40
2019-05-06T04:34:08.919Z,74.50
2019-05-06T04:36:26.817Z,75.00
2019-05-06T04:39:03.913Z,74.40
2019-05-06T04:41:34.321Z,74.50
2019-05-06T04:44:07.917Z,74.40
2019-05-06T04:46:44.300Z,74.60
2019-05-06T04:49:15.174Z,74.90
2019-05-06T04:51:47.994Z,75.00
2019-05-06T04:54:19.290Z,74.60
2019-05-06T04:56:53.476Z,74.40
2019-05-06T04:59:24.079Z,73.90
2019-05-06T05:01:54.276Z,74.10
2019-05-06T05:04:32.612Z,74.40
2019-05-06T05:07:03.238Z,74.50
2019-05-06T05:09:33.684Z,73.60
2019-05-06T05:12:22.759Z,73.50
2019-05-06T05:15:13.669Z,73.60
2019-05-06T05:17:46.155Z,73.20
2019-05-06T05:20:16.427Z,73.30
2019-05-06T05:22:49.311Z,73.30
2019-05-06T05:25:22.108Z,73.30
2019-05-06T05:27:54.534Z,73.50
2019-05-06T05:33:14.265Z,73.20
2019-05-06T05:35:45.003Z,73.10
2019-05-06T05:38:16.984Z,72.70
2019-05-06T05:40:48.180Z,72.70
2019-05-06T05:43:29.643Z,72.60
2019-05-06T05:46:02.936Z,72.90
2019-05-06T05:48:37.485Z,72.90
2019-05-06T05:51:10.074Z,72.00
2019-05-06T05:53:42.567Z,72.10
2019-05-06T05:56:15.017Z,73.00
2019-05-06T05:58:46.753Z,72.00
2019-05-06T06:01:17.981Z,71.70
2019-05-06T06:03:52.614Z,71.80
2019-05-06T06:06:24.942Z,71.90
2019-05-06T06:08:57.587Z,71.40
2019-05-06T06:14:34.253Z,71.40
2019-05-06T06:17:25.060Z,71.00
2019-05-06T06:20:13.292Z,70.60
2019-05-06T06:22:44.407Z,70.60
2019-05-06T06:25:15.240Z,70.00
2019-05-06T06:27:54.204Z,70.80
2019-05-06T06:30:28.617Z,70.30
2019-05-06T06:32:58.395Z,70.30
2019-05-06T06:35:32.552Z,70.20
2019-05-06T06:38:05.128Z,70.10
2019-05-06T06:40:37.486Z,71.00
2019-05-06T06:43:12.214Z,69.70
2019-05-06T06:45:42.555Z,69.20
2019-05-06T06:48:18.758Z,68.80
2019-05-06T06:50:52.329Z,68.70
2019-05-06T06:53:24.106Z,68.70
2019-05-06T06:55:56.641Z,68.90
2019-05-06T06:58:29.220Z,68.70
2019-05-06T07:01:04.379Z,68.80
2019-05-06T07:03:37.337Z,69.50
2019-05-06T07:06:15.675Z,68.90
2019-05-06T07:08:46.826Z,68.60
2019-05-06T07:11:18.008Z,67.80
2019-05-06T07:13:52.937Z,67.00
2019-05-06T07:16:27.284Z,67.20
2019-05-06T07:18:58.302Z,67.40
2019-05-06T07:21:36.040Z,66.90
2019-05-06T07:24:07.488Z,66.70
2019-05-06T07:26:42.524Z,66.10
2019-05-06T07:29:23.507Z,66.80
2019-05-06T07:31:50.553Z,67.30
2019-05-06T07:34:24.383Z,67.40
2019-05-06T07:36:58.896Z,66.80
2019-05-06T07:39:29.995Z,67.20
2019-05-06T07:42:02.627Z,67.10
2019-05-06T07:44:53.018Z,67.30
2019-05-06T07:47:24.470Z,67.20
2019-05-06T07:49:54.363Z,67.60
2019-05-06T07:52:26.181Z,67.00
2019-05-06T07:54:57.411Z,66.50
2019-05-06T07:57:29.689Z,66.10
2019-05-06T08:00:03.251Z,65.90
2019-05-06T08:02:32.487Z,65.10
2019-05-06T08:05:02.571Z,65.00
2019-05-06T08:07:34.030Z,65.30
2019-05-06T08:10:04.923Z,64.10
2019-05-06T08:12:35.070Z,64.00
2019-05-06T08:15:08.168Z,63.00
2019-05-06T08:17:42.328Z,63.20
2019-05-06T08:20:13.836Z,63.10
2019-05-06T08:25:47.803Z,61.80
2019-05-06T08:28:22.585Z,62.00
2019-05-06T08:30:53.096Z,62.30
2019-05-06T08:33:27.710Z,61.50
2019-05-06T08:36:08.928Z,63.20
2019-05-06T08:38:34.655Z,61.90
2019-05-06T08:41:09.128Z,60.20
2019-05-06T08:43:43.164Z,60.10
2019-05-06T08:46:16.765Z,60.00
2019-05-06T08:48:49.198Z,61.10
2019-05-06T08:51:22.374Z,61.00
2019-05-06T08:54:00.424Z,59.90
2019-05-06T08:56:32.058Z,60.40
2019-05-06T08:59:04.096Z,59.30
2019-05-06T09:01:44.278Z,60.30
2019-05-06T09:04:16.336Z,60.30
2019-05-06T09:06:48.077Z,58.60
2019-05-06T09:09:19.019Z,58.80
2019-05-06T09:11:53.543Z,59.20
2019-05-06T09:14:24.001Z,59.10
2019-05-06T09:16:55.017Z,60.20
2019-05-06T09:19:27.862Z,59.70
2019-05-06T09:22:02.360Z,60.00
2019-05-06T09:24:34.117Z,60.30
2019-05-06T09:27:05.494Z,60.20
2019-05-06T09:29:37.931Z,60.70
2019-05-06T09:32:09.650Z,58.20
2019-05-06T09:34:54.227Z,57.50
2019-05-06T09:37:24.377Z,58.40
2019-05-06T09:39:54.360Z,58.50
2019-05-06T09:42:24.370Z,59.20
2019-05-06T09:44:54.588Z,58.60
2019-05-06T09:47:29.500Z,56.30
2019-05-06T09:49:59.297Z,56.60
2019-05-06T09:52:33.310Z,55.70
2019-05-06T09:55:17.631Z,55.80
2019-05-06T09:58:03.198Z,54.90
2019-05-06T10:00:34.336Z,54.20
2019-05-06T10:03:04.747Z,52.60
2019-05-06T10:05:35.587Z,53.30
2019-05-06T10:08:06.018Z,52.70
2019-05-06T10:10:38.195Z,54.10
2019-05-06T10:13:08.650Z,53.20
2019-05-06T10:15:42.896Z,54.40
2019-05-06T10:18:16.712Z,55.30
2019-05-06T10:20:49.032Z,55.20
2019-05-06T10:23:22.155Z,55.60
2019-05-06T10:25:53.710Z,55.00
2019-05-06T10:28:33.243Z,56.40
2019-05-06T10:31:03.714Z,55.20
2019-05-06T10:33:36.575Z,53.90
2019-05-06T10:36:07.613Z,54.60
2019-05-06T10:38:52.727Z,53.90
2019-05-06T10:41:25.158Z,55.40
2019-05-06T10:44:03.029Z,56.80
2019-05-06T10:46:33.304Z,54.50
2019-05-06T10:49:05.651Z,54.70
2019-05-06T10:51:42.900Z,53.70
2019-05-06T10:54:12.929Z,54.50
2019-05-06T10:56:53.167Z,54.10
2019-05-06T10:59:22.193Z,52.90
2019-05-06T11:02:12.958Z,54.10
2019-05-06T11:04:44.783Z,54.50
2019-05-06T11:07:28.172Z,53.30
2019-05-06T11:09:53.102Z,53.20
2019-05-06T11:12:21.944Z,54.10
2019-05-06T11:14:55.724Z,54.50
2019-05-06T11:17:28.091Z,53.70
2019-05-06T11:20:02.976Z,54.10
2019-05-06T11:22:32.898Z,54.70
2019-05-06T11:25:04.229Z,54.50
2019-05-06T11:27:39.484Z,54.90
2019-05-06T11:30:13.801Z,55.70
2019-05-06T11:32:54.598Z,54.70
2019-05-06T11:35:27.997Z,55.50
2019-05-06T11:38:04.991Z,54.50
2019-05-06T11:40:36.340Z,56.00
2019-05-06T11:43:08.836Z,54.70
2019-05-06T11:45:39.888Z,55.10
2019-05-06T11:48:09.718Z,54.70
2019-05-06T11:50:42.740Z,55.10
2019-05-06T11:53:14.094Z,54.70
2019-05-06T11:55:48.871Z,54.70
2019-05-06T11:58:36.169Z,55.10
2019-05-06T12:01:08.832Z,55.70
2019-05-06T12:03:40.082Z,57.30
2019-05-06T12:06:09.936Z,57.50
2019-05-06T12:08:43.012Z,57.30
2019-05-06T12:11:14.696Z,57.00
2019-05-06T12:13:46.111Z,57.30
2019-05-06T12:16:17.334Z,56.80
2019-05-06T12:18:50.307Z,57.40
2019-05-06T12:21:19.606Z,58.10
2019-05-06T12:23:50.179Z,57.10
2019-05-06T12:26:22.538Z,56.80
2019-05-06T12:28:53.934Z,56.70
2019-05-06T12:31:24.775Z,56.10
2019-05-06T12:33:55.860Z,57.30
2019-05-06T12:36:25.787Z,55.30
2019-05-06T12:39:06.576Z,55.30
2019-05-06T12:41:38.208Z,56.20
2019-05-06T12:44:07.428Z,56.20
2019-05-06T12:46:38.910Z,55.80
2019-05-06T12:49:08.927Z,54.90
2019-05-06T12:51:40.134Z,54.20
2019-05-06T12:54:12.917Z,54.80
2019-05-06T12:56:44.327Z,54.10
2019-05-06T12:59:15.996Z,54.50
2019-05-06T13:01:53.804Z,54.90
2019-05-06T13:04:44.338Z,54.30
2019-05-06T13:06:56.793Z,53.90
2019-05-06T13:09:27.760Z,55.50
2019-05-06T13:11:58.715Z,54.40
2019-05-06T13:14:28.730Z,55.20
2019-05-06T13:16:58.564Z,53.90
2019-05-06T13:19:32.231Z,54.10
2019-05-06T13:22:03.832Z,54.40
2019-05-06T13:24:38.275Z,54.40
2019-05-06T13:27:12.581Z,53.20
2019-05-06T13:29:44.745Z,53.40
2019-05-06T13:32:17.175Z,54.40
2019-05-06T13:34:46.979Z,52.60
2019-05-06T13:37:16.956Z,54.40
2019-05-06T13:39:46.910Z,53.10
2019-05-06T13:42:19.542Z,53.60
2019-05-06T13:44:50.425Z,53.60
2019-05-06T13:47:37.253Z,53.50
2019-05-06T13:50:14.039Z,52.20
2019-05-06T13:52:46.997Z,52.20
2019-05-06T13:55:22.125Z,52.90
2019-05-06T13:57:52.901Z,52.70
2019-05-06T14:00:25.033Z,54.50
2019-05-06T14:03:01.976Z,53.50
2019-05-06T14:05:33.060Z,53.80
2019-05-06T14:08:04.905Z,53.90
2019-05-06T14:10:36.510Z,53.70
2019-05-06T14:13:08.041Z,53.90
2019-05-06T14:15:41.934Z,54.20
2019-05-06T14:18:13.455Z,54.10
2019-05-06T14:20:43.736Z,54.50
2019-05-06T14:23:15.788Z,53.40
2019-05-06T14:25:59.080Z,55.00
2019-05-06T14:28:45.513Z,54.90
2019-05-06T14:31:25.359Z,55.20
2019-05-06T14:33:52.818Z,54.90
2019-05-06T14:36:27.377Z,54.60
2019-05-06T14:38:55.368Z,55.10
2019-05-06T14:41:29.559Z,55.10
2019-05-06T14:44:02.677Z,56.40
2019-05-06T14:46:37.784Z,56.80
2019-05-06T14:49:08.605Z,56.50
2019-05-06T14:51:39.672Z,57.30
2019-05-06T14:54:14.598Z,57.40
2019-05-06T14:56:53.475Z,57.90
2019-05-06T14:59:27.895Z,57.70
2019-05-06T15:01:58.966Z,57.30
2019-05-06T15:04:32.276Z,58.00
2019-05-06T15:07:04.442Z,59.00
2019-05-06T15:09:35.267Z,59.50
2019-05-06T15:12:06.836Z,59.00
2019-05-06T15:14:39.134Z,59.30
2019-05-06T15:17:09.042Z,59.90
2019-05-06T15:19:42.994Z,59.70
2019-05-06T15:22:15.420Z,59.90
2019-05-06T15:24:47.519Z,59.40
2019-05-06T15:27:19.671Z,59.30
2019-05-06T15:29:53.142Z,59.20
2019-05-06T15:32:26.797Z,59.30
2019-05-06T15:35:17.505Z,59.10
2019-05-06T15:37:50.135Z,59.20
2019-05-06T15:40:31.863Z,60.00
2019-05-06T15:42:54.916Z,59.80
2019-05-06T15:45:24.871Z,60.30
2019-05-06T15:47:56.455Z,61.00
2019-05-06T15:50:26.383Z,61.00
2019-05-06T15:52:58.905Z,61.20
2019-05-06T15:55:32.142Z,62.40
2019-05-06T15:58:04.078Z,62.00
2019-05-06T16:00:33.876Z,61.50
2019-05-06T16:03:06.524Z,62.10
2019-05-06T16:05:36.422Z,61.60
2019-05-06T16:08:09.046Z,61.10
2019-05-06T16:10:52.086Z,61.30
2019-05-06T16:13:15.473Z,61.20
2019-05-06T16:15:46.567Z,60.30
2019-05-06T16:18:17.392Z,60.60
2019-05-06T16:20:48.251Z,60.20
2019-05-06T16:23:23.081Z,60.40
2019-05-06T16:25:52.767Z,60.60
2019-05-06T16:28:22.700Z,60.40
2019-05-06T16:30:53.723Z,60.40
2019-05-06T16:33:25.957Z,61.00
2019-05-06T16:35:55.935Z,61.40
2019-05-06T16:38:32.334Z,61.60
2019-05-06T16:41:10.397Z,62.30
2019-05-06T16:43:34.342Z,62.30
2019-05-06T16:46:03.877Z,62.20
2019-05-06T16:48:37.191Z,62.20
2019-05-06T16:51:07.167Z,62.10
2019-05-06T16:53:38.369Z,62.00
2019-05-06T16:56:09.847Z,62.20
2019-05-06T16:58:47.222Z,63.20
2019-05-06T17:01:18.263Z,63.30
2019-05-06T17:03:53.517Z,62.70
2019-05-06T17:06:35.463Z,62.00
2019-05-06T17:09:20.083Z,62.90
2019-05-06T17:11:45.057Z,62.20
2019-05-06T17:14:15.931Z,62.10
2019-05-06T17:16:45.774Z,63.40
2019-05-06T17:19:20.339Z,63.10
2019-05-06T17:21:52.394Z,62.70
2019-05-06T17:24:23.392Z,63.00
2019-05-06T17:26:56.404Z,62.70
2019-05-06T17:29:43.124Z,63.50
2019-05-06T17:32:22.196Z,63.80
2019-05-06T17:34:57.109Z,63.90
2019-05-06T17:37:43.390Z,64.30
2019-05-06T17:40:14.698Z,64.30
2019-05-06T17:42:46.030Z,64.40
2019-05-06T17:45:35.257Z,64.60
2019-05-06T17:48:23.298Z,63.90
2019-05-06T17:51:13.321Z,64.70
2019-05-06T17:53:43.444Z,65.10
2019-05-06T17:56:13.313Z,64.60
2019-05-06T17:58:45.541Z,64.60
2019-05-06T18:01:18.056Z,64.90
2019-05-06T18:03:52.656Z,65.20
2019-05-06T18:06:24.832Z,65.40
2019-05-06T18:08:58.662Z,65.70
2019-05-06T18:11:29.559Z,65.80
2019-05-06T18:14:00.756Z,65.80
2019-05-06T18:16:33.459Z,66.20
2019-05-06T18:19:04.958Z,66.40
2019-05-06T18:21:37.093Z,66.20
2019-05-06T18:24:09.865Z,66.10
2019-05-06T18:26:42.873Z,66.80
2019-05-06T18:29:12.793Z,66.60
2019-05-06T18:31:42.918Z,67.00
2019-05-06T18:34:17.243Z,66.80
2019-05-06T18:36:48.454Z,66.80
2019-05-06T18:39:19.266Z,67.40
2019-05-06T18:41:50.213Z,67.60
2019-05-06T18:44:22.500Z,68.00
2019-05-06T18:46:53.179Z,67.80
2019-05-06T18:49:23.188Z,67.90
2019-05-06T18:51:54.281Z,68.20
2019-05-06T18:54:28.873Z,68.30
2019-05-06T18:57:04.579Z,68.10
2019-05-06T18:59:36.818Z,68.50
2019-05-06T19:02:08.113Z,67.90
2019-05-06T19:04:41.907Z,68.00
2019-05-06T19:07:17.113Z,67.80
2019-05-06T19:09:52.339Z,66.90
2019-05-06T19:12:30.492Z,66.60
2019-05-06T19:14:55.917Z,66.00
2019-05-06T19:17:27.195Z,65.90
2019-05-06T19:19:58.920Z,66.70
2019-05-06T19:22:32.481Z,65.90
2019-05-06T19:25:04.132Z,65.90
2019-05-06T19:27:35.111Z,65.50
2019-05-06T19:30:12.849Z,65.50
2019-05-06T19:32:43.392Z,66.10
2019-05-06T19:35:14.215Z,65.90
2019-05-06T19:37:45.098Z,65.20
2019-05-06T19:40:16.302Z,65.10
2019-05-06T19:42:50.158Z,64.60
2019-05-06T19:45:22.315Z,64.80
2019-05-06T19:47:54.061Z,64.60
2019-05-06T19:50:25.958Z,64.40
2019-05-06T19:52:55.297Z,64.80
2019-05-06T19:55:27.709Z,64.20
2019-05-06T19:58:02.307Z,64.70
2019-05-06T20:00:35.584Z,64.20
2019-05-06T20:03:06.230Z,64.40
2019-05-06T20:05:38.751Z,64.70
2019-05-06T20:08:12.936Z,64.80
2019-05-06T20:11:02.656Z,64.80
2019-05-06T20:13:33.538Z,64.60
2019-05-06T20:16:03.427Z,65.00
2019-05-06T20:18:35.020Z,65.00
2019-05-06T20:21:06.016Z,65.10
2019-05-06T20:23:35.360Z,65.00
2019-05-06T20:26:08.119Z,65.30
2019-05-06T20:28:38.025Z,64.90
2019-05-06T20:31:07.882Z,65.20
2019-05-06T20:33:42.165Z,65.40
2019-05-06T20:36:13.041Z,65.50
2019-05-06T20:38:45.161Z,65.70
2019-05-06T20:41:17.760Z,65.70
2019-05-06T20:43:50.037Z,65.90
2019-05-06T20:46:24.772Z,66.20
2019-05-06T20:48:55.809Z,66.20
2019-05-06T20:51:28.050Z,66.20
2019-05-06T20:54:00.834Z,66.40
2019-05-06T20:56:32.775Z,66.70
2019-05-06T20:59:02.564Z,66.60
2019-05-06T21:01:33.815Z,66.70
2019-05-06T21:04:04.764Z,66.70
2019-05-06T21:06:37.020Z,66.90
2019-05-06T21:09:08.843Z,67.20
2019-05-06T21:11:41.905Z,67.10
2019-05-06T21:14:13.556Z,67.40
2019-05-06T21:16:44.429Z,67.30
2019-05-06T21:19:15.403Z,67.40
2019-05-06T21:21:45.372Z,67.80
2019-05-06T21:24:18.058Z,67.90
2019-05-06T21:26:49.064Z,67.90
2019-05-06T21:29:18.938Z,68.20
2019-05-06T21:31:49.954Z,68.30
2019-05-06T21:34:22.426Z,68.30
2019-05-06T21:36:56.688Z,68.20
2019-05-06T21:39:28.941Z,68.30
2019-05-06T21:41:59.950Z,68.40
2019-05-06T21:44:32.406Z,68.20
2019-05-06T21:47:03.031Z,68.30
2019-05-06T21:49:34.065Z,68.40
2019-05-06T21:52:03.898Z,68.00
2019-05-06T21:54:36.060Z,68.20
2019-05-06T21:57:07.492Z,68.60
2019-05-06T21:59:38.756Z,68.70
2019-05-06T22:02:13.342Z,68.60
2019-05-06T22:04:44.298Z,68.90
2019-05-06T22:07:14.182Z,68.90
2019-05-06T22:09:46.565Z,68.90
2019-05-06T22:12:17.402Z,69.00
2019-05-06T22:14:49.665Z,69.10
2019-05-06T22:17:19.468Z,69.30
2019-05-06T22:19:49.250Z,69.20
2019-05-06T22:22:23.423Z,69.30
2019-05-06T22:24:57.667Z,69.80
2019-05-06T22:27:27.661Z,69.50
2019-05-06T22:29:59.853Z,69.60
2019-05-06T22:32:30.147Z,70.00
2019-05-06T22:34:59.972Z,69.60
2019-05-06T22:37:33.077Z,69.90
2019-05-06T22:40:03.521Z,70.20
2019-05-06T22:42:35.018Z,70.00
2019-05-06T22:45:06.975Z,70.20
2019-05-06T22:47:37.752Z,70.20
2019-05-06T22:50:12.874Z,70.20
2019-05-06T22:52:46.132Z,70.40
2019-05-06T22:55:16.196Z,70.20
2019-05-06T22:57:47.729Z,70.20
2019-05-06T23:00:19.658Z,70.20
2019-05-06T23:02:54.469Z,70.30
2019-05-06T23:05:26.504Z,70.30
2019-05-06T23:08:02.659Z,70.40
2019-05-06T23:10:33.760Z,70.50
2019-05-06T23:13:03.747Z,70.40
2019-05-06T23:15:36.798Z,70.70
2019-05-06T23:18:09.050Z,70.70
2019-05-06T23:20:40.042Z,70.90
2019-05-06T23:23:12.752Z,70.90
2019-05-06T23:25:43.594Z,71.30
2019-05-06T23:28:14.789Z,71.60
2019-05-06T23:33:35.868Z,71.50
2019-05-06T23:36:05.964Z,71.70
2019-05-06T23:39:13.446Z,71.90
2019-05-06T23:42:20.329Z,72.10
2019-05-06T23:45:28.856Z,72.10
2019-05-06T23:48:34.835Z,72.10
2019-05-06T23:51:45.209Z,72.10
2019-05-06T23:54:52.262Z,72.40
2019-05-06T23:57:24.974Z,72.30
2019-05-06T23:59:56.399Z,72.70
